sensor_id;sensor_type;location;lat;lon;timestamp;pressure;altitude;pressure_sealevel;temperature;humidity
11692;BME280;33659;42.672;23.354;2023-11-21T00:00:13;67760.44;;;7.22;68.81
11692;BME280;33659;42.672;23.354;2023-11-21T00:02:43;67754.63;;;7.19;68.36
11692;BME280;33659;42.672;23.354;2023-11-21T00:05:11;67753.53;;;7.18;69.03
11692;BME280;33659;42.672;23.354;2023-11-21T00:07:39;67747.50;;;7.10;68.87
11692;BME280;33659;42.672;23.354;2023-11-21T00:10:06;67742.09;;;7.04;68.89
11692;BME280;33659;42.672;23.354;2023-11-21T00:12:33;67735.50;;;6.96;69.15
11692;BME280;33659;42.672;23.354;2023-11-21T00:15:00;67727.09;;;6.93;69.48
11692;BME280;33659;42.672;23.354;2023-11-21T00:17:28;67713.59;;;6.80;69.53
11692;BME280;33659;42.672;23.354;2023-11-21T00:19:56;67714.69;;;6.81;70.11
11692;BME280;33659;42.672;23.354;2023-11-21T00:22:22;67706.06;;;6.73;69.11
11692;BME280;33659;42.672;23.354;2023-11-21T00:24:49;67690.97;;;6.59;69.11
11692;BME280;33659;42.672;23.354;2023-11-21T00:27:16;67684.34;;;6.50;69.40
11692;BME280;33659;42.672;23.354;2023-11-21T00:29:42;67679.63;;;6.48;69.75
11692;BME280;33659;42.672;23.354;2023-11-21T00:32:09;67683.41;;;6.51;69.54
11692;BME280;33659;42.672;23.354;2023-11-21T00:34:36;67682.34;;;6.50;69.94
11692;BME280;33659;42.672;23.354;2023-11-21T00:37:04;67692.56;;;6.60;69.75
11692;BME280;33659;42.672;23.354;2023-11-21T00:39:30;67702.69;;;6.67;69.79
11692;BME280;33659;42.672;23.354;2023-11-21T00:41:58;67701.19;;;6.68;69.61
11692;BME280;33659;42.672;23.354;2023-11-21T00:44:25;67718.88;;;6.83;69.42
11692;BME280;33659;42.672;23.354;2023-11-21T00:46:52;67721.16;;;6.87;69.60
11692;BME280;33659;42.672;23.354;2023-11-21T00:49:19;67733.03;;;6.98;69.88
11692;BME280;33659;42.672;23.354;2023-11-21T00:51:47;67750.84;;;7.15;69.96
11692;BME280;33659;42.672;23.354;2023-11-21T00:54:15;67768.00;;;7.29;69.80
11692;BME280;33659;42.672;23.354;2023-11-21T00:56:42;67775.66;;;7.39;69.58
11692;BME280;33659;42.672;23.354;2023-11-21T00:59:09;67782.03;;;7.42;69.69
11692;BME280;33659;42.672;23.354;2023-11-21T01:01:36;67775.00;;;7.36;69.64
11692;BME280;33659;42.672;23.354;2023-11-21T01:04:03;67779.44;;;7.42;69.91
11692;BME280;33659;42.672;23.354;2023-11-21T01:06:32;67787.44;;;7.47;69.73
11692;BME280;33659;42.672;23.354;2023-11-21T01:08:58;67790.25;;;7.52;69.34
11692;BME280;33659;42.672;23.354;2023-11-21T01:11:27;67794.44;;;7.54;69.49
11692;BME280;33659;42.672;23.354;2023-11-21T01:13:53;67795.00;;;7.54;69.26
11692;BME280;33659;42.672;23.354;2023-11-21T01:16:20;67788.09;;;7.50;69.18
11692;BME280;33659;42.672;23.354;2023-11-21T01:18:47;67784.84;;;7.47;69.20
11692;BME280;33659;42.672;23.354;2023-11-21T01:21:13;67784.28;;;7.47;69.17
11692;BME280;33659;42.672;23.354;2023-11-21T01:23:42;67784.44;;;7.49;69.17
11692;BME280;33659;42.672;23.354;2023-11-21T01:26:08;67787.97;;;7.48;68.81
11692;BME280;33659;42.672;23.354;2023-11-21T01:28:36;67790.66;;;7.50;68.67
11692;BME280;33659;42.672;23.354;2023-11-21T01:31:03;67794.56;;;7.56;68.50
11692;BME280;33659;42.672;23.354;2023-11-21T01:33:30;67793.47;;;7.55;68.61
11692;BME280;33659;42.672;23.354;2023-11-21T01:35:57;67796.19;;;7.58;68.58
11692;BME280;33659;42.672;23.354;2023-11-21T01:38:23;67793.91;;;7.53;68.46
11692;BME280;33659;42.672;23.354;2023-11-21T01:40:50;67798.22;;;7.57;68.39
11692;BME280;33659;42.672;23.354;2023-11-21T01:43:17;67789.59;;;7.49;68.78
11692;BME280;33659;42.672;23.354;2023-11-21T01:45:45;67793.25;;;7.50;68.74
11692;BME280;33659;42.672;23.354;2023-11-21T01:48:12;67783.09;;;7.43;68.84
11692;BME280;33659;42.672;23.354;2023-11-21T01:50:42;67771.38;;;7.35;69.23
11692;BME280;33659;42.672;23.354;2023-11-21T01:53:11;67778.78;;;7.39;69.13
11692;BME280;33659;42.672;23.354;2023-11-21T01:55:40;67772.97;;;7.36;69.54
11692;BME280;33659;42.672;23.354;2023-11-21T01:58:07;67775.66;;;7.39;69.33
11692;BME280;33659;42.672;23.354;2023-11-21T02:00:35;67767.56;;;7.31;69.42
11692;BME280;33659;42.672;23.354;2023-11-21T02:03:05;67774.59;;;7.38;69.17
11692;BME280;33659;42.672;23.354;2023-11-21T02:05:32;67778.38;;;7.41;68.98
11692;BME280;33659;42.672;23.354;2023-11-21T02:07:59;67782.03;;;7.42;68.84
11692;BME280;33659;42.672;23.354;2023-11-21T02:10:26;67778.91;;;7.42;68.72
11692;BME280;33659;42.672;23.354;2023-11-21T02:12:52;67784.06;;;7.42;68.82
11692;BME280;33659;42.672;23.354;2023-11-21T02:15:19;67780.53;;;7.43;68.75
11692;BME280;33659;42.672;23.354;2023-11-21T02:17:47;67786.88;;;7.47;68.36
11692;BME280;33659;42.672;23.354;2023-11-21T02:20:18;67779.44;;;7.42;67.99
11692;BME280;33659;42.672;23.354;2023-11-21T02:22:49;67778.78;;;7.39;68.17
11692;BME280;33659;42.672;23.354;2023-11-21T02:25:17;67768.13;;;7.31;68.69
11692;BME280;33659;42.672;23.354;2023-11-21T02:27:44;67765.97;;;7.29;68.53
11692;BME280;33659;42.672;23.354;2023-11-21T02:30:14;67771.38;;;7.35;68.44
11692;BME280;33659;42.672;23.354;2023-11-21T02:32:41;67769.72;;;7.33;68.56
11692;BME280;33659;42.672;23.354;2023-11-21T02:35:08;67770.41;;;7.36;68.22
11692;BME280;33659;42.672;23.354;2023-11-21T02:37:37;67767.69;;;7.33;68.41
11692;BME280;33659;42.672;23.354;2023-11-21T02:40:08;67773.38;;;7.34;68.62
11692;BME280;33659;42.672;23.354;2023-11-21T02:42:35;67778.78;;;7.39;68.12
11692;BME280;33659;42.672;23.354;2023-11-21T02:45:02;67770.81;;;7.34;68.24
11692;BME280;33659;42.672;23.354;2023-11-21T02:47:29;67752.47;;;7.17;68.23
11692;BME280;33659;42.672;23.354;2023-11-21T02:49:55;67764.75;;;7.26;68.36
11692;BME280;33659;42.672;23.354;2023-11-21T02:52:22;67769.63;;;7.30;68.39
11692;BME280;33659;42.672;23.354;2023-11-21T02:54:49;67763.25;;;7.27;68.51
11692;BME280;33659;42.672;23.354;2023-11-21T02:57:17;67759.47;;;7.23;68.66
11692;BME280;33659;42.672;23.354;2023-11-21T02:59:44;67743.28;;;7.08;69.01
11692;BME280;33659;42.672;23.354;2023-11-21T03:02:10;67727.63;;;6.93;69.52
11692;BME280;33659;42.672;23.354;2023-11-21T03:04:37;67708.63;;;6.73;70.32
11692;BME280;33659;42.672;23.354;2023-11-21T03:07:04;67692.03;;;6.60;70.94
11692;BME280;33659;42.672;23.354;2023-11-21T03:09:30;67691.38;;;6.57;71.24
11692;BME280;33659;42.672;23.354;2023-11-21T03:11:57;67692.03;;;6.60;71.31
11692;BME280;33659;42.672;23.354;2023-11-21T03:14:26;67697.44;;;6.65;71.13
11692;BME280;33659;42.672;23.354;2023-11-21T03:16:52;67706.47;;;6.71;70.82
11692;BME280;33659;42.672;23.354;2023-11-21T03:19:19;67711.47;;;6.78;70.46
11692;BME280;33659;42.672;23.354;2023-11-21T03:21:46;67713.59;;;6.80;70.36
11692;BME280;33659;42.672;23.354;2023-11-21T03:24:12;67707.13;;;6.74;70.63
11692;BME280;33659;42.672;23.354;2023-11-21T03:26:44;67719.53;;;6.86;70.36
11692;BME280;33659;42.672;23.354;2023-11-21T03:29:10;67720.63;;;6.87;69.96
11692;BME280;33659;42.672;23.354;2023-11-21T03:31:38;67719.53;;;6.86;70.26
11692;BME280;33659;42.672;23.354;2023-11-21T03:34:05;67724.81;;;6.88;70.12
11692;BME280;33659;42.672;23.354;2023-11-21T03:36:32;67729.25;;;6.95;70.06
11692;BME280;33659;42.672;23.354;2023-11-21T03:38:59;67737.38;;;7.02;69.67
11692;BME280;33659;42.672;23.354;2023-11-21T03:41:25;67744.25;;;7.06;69.42
11692;BME280;33659;42.672;23.354;2023-11-21T03:43:52;67735.72;;;7.01;69.68
11692;BME280;33659;42.672;23.354;2023-11-21T03:46:19;67729.25;;;6.95;69.98
11692;BME280;33659;42.672;23.354;2023-11-21T03:48:47;67731.97;;;6.97;69.81
11692;BME280;33659;42.672;23.354;2023-11-21T03:51:13;67734.66;;;7.00;69.73
11692;BME280;33659;42.672;23.354;2023-11-21T03:53:40;67733.56;;;6.99;69.76
11692;BME280;33659;42.672;23.354;2023-11-21T03:56:07;67725.91;;;6.89;69.94
11692;BME280;33659;42.672;23.354;2023-11-21T03:58:34;67712.53;;;6.79;70.28
11692;BME280;33659;42.672;23.354;2023-11-21T04:01:01;67709.72;;;6.74;70.35
11692;BME280;33659;42.672;23.354;2023-11-21T04:03:28;67690.81;;;6.56;70.55
11692;BME280;33659;42.672;23.354;2023-11-21T04:05:56;67674.22;;;6.43;71.42
11692;BME280;33659;42.672;23.354;2023-11-21T04:08:23;67670.88;;;6.37;71.84
11692;BME280;33659;42.672;23.354;2023-11-21T04:10:51;67666.13;;;6.35;72.21
11692;BME280;33659;42.672;23.354;2023-11-21T04:13:19;67675.84;;;6.44;71.78
11692;BME280;33659;42.672;23.354;2023-11-21T04:15:45;67675.84;;;6.44;71.59
11692;BME280;33659;42.672;23.354;2023-11-21T04:18:12;67666.56;;;6.33;71.98
11692;BME280;33659;42.672;23.354;2023-11-21T04:20:39;67663.31;;;6.30;71.88
11692;BME280;33659;42.672;23.354;2023-11-21T04:23:07;67660.75;;;6.30;72.19
11692;BME280;33659;42.672;23.354;2023-11-21T04:25:35;67667.09;;;6.34;72.05
11692;BME280;33659;42.672;23.354;2023-11-21T04:28:02;67667.63;;;6.34;72.03
11692;BME280;33659;42.672;23.354;2023-11-21T04:30:29;67665.06;;;6.34;71.93
11692;BME280;33659;42.672;23.354;2023-11-21T04:32:56;67669.94;;;6.39;71.83
11692;BME280;33659;42.672;23.354;2023-11-21T04:35:22;67676.94;;;6.45;71.62
11692;BME280;33659;42.672;23.354;2023-11-21T04:37:49;67683.94;;;6.52;71.11
11692;BME280;33659;42.672;23.354;2023-11-21T04:40:18;67671.44;;;6.38;71.63
11692;BME280;33659;42.672;23.354;2023-11-21T04:42:46;67649.44;;;6.19;72.28
11692;BME280;33659;42.672;23.354;2023-11-21T04:45:13;67632.31;;;6.06;72.88
11692;BME280;33659;42.672;23.354;2023-11-21T04:47:41;67631.09;;;6.02;73.23
11692;BME280;33659;42.672;23.354;2023-11-21T04:50:09;67633.78;;;6.05;73.34
11692;BME280;33659;42.672;23.354;2023-11-21T04:52:36;67628.41;;;6.00;73.03
11692;BME280;33659;42.672;23.354;2023-11-21T04:55:03;67620.84;;;5.92;73.78
11692;BME280;33659;42.672;23.354;2023-11-21T04:57:34;67625.16;;;5.96;73.54
11692;BME280;33659;42.672;23.354;2023-11-21T05:00:00;67619.75;;;5.91;73.77
11692;BME280;33659;42.672;23.354;2023-11-21T05:02:31;67623.00;;;5.94;73.86
11692;BME280;33659;42.672;23.354;2023-11-21T05:04:59;67630.56;;;6.02;73.76
11692;BME280;33659;42.672;23.354;2023-11-21T05:07:26;67644.56;;;6.15;73.56
11692;BME280;33659;42.672;23.354;2023-11-21T05:09:54;67660.75;;;6.30;72.97
11692;BME280;33659;42.672;23.354;2023-11-21T05:12:21;67665.72;;;6.37;72.22
11692;BME280;33659;42.672;23.354;2023-11-21T05:14:50;67665.50;;;6.32;72.13
11692;BME280;33659;42.672;23.354;2023-11-21T05:17:17;67660.22;;;6.30;72.43
11692;BME280;33659;42.672;23.354;2023-11-21T05:19:44;67659.13;;;6.29;72.65
11692;BME280;33659;42.672;23.354;2023-11-21T05:22:11;67666.13;;;6.35;72.49
11692;BME280;33659;42.672;23.354;2023-11-21T05:24:38;67664.09;;;6.36;72.12
11692;BME280;33659;42.672;23.354;2023-11-21T05:27:05;67653.88;;;6.26;72.46
11692;BME280;33659;42.672;23.354;2023-11-21T05:29:32;67652.66;;;6.22;72.91
11692;BME280;33659;42.672;23.354;2023-11-21T05:32:00;67658.06;;;6.28;72.82
11692;BME280;33659;42.672;23.354;2023-11-21T05:34:26;67665.06;;;6.34;72.99
11692;BME280;33659;42.672;23.354;2023-11-21T05:36:53;67673.28;;;6.44;72.65
11692;BME280;33659;42.672;23.354;2023-11-21T05:39:20;67683.94;;;6.52;72.24
11692;BME280;33659;42.672;23.354;2023-11-21T05:41:47;67693.09;;;6.61;71.99
11692;BME280;33659;42.672;23.354;2023-11-21T05:44:13;67700.66;;;6.68;71.78
11692;BME280;33659;42.672;23.354;2023-11-21T05:46:40;67706.06;;;6.73;71.05
11692;BME280;33659;42.672;23.354;2023-11-21T05:49:10;67715.00;;;6.76;70.90
11692;BME280;33659;42.672;23.354;2023-11-21T05:51:36;67714.69;;;6.81;70.81
11692;BME280;33659;42.672;23.354;2023-11-21T05:54:04;67716.84;;;6.83;70.62
11692;BME280;33659;42.672;23.354;2023-11-21T05:56:30;67723.75;;;6.87;70.21
11692;BME280;33659;42.672;23.354;2023-11-21T05:58:58;67722.78;;;6.89;70.32
11692;BME280;33659;42.672;23.354;2023-11-21T06:01:25;67721.16;;;6.87;70.08
11692;BME280;33659;42.672;23.354;2023-11-21T06:03:53;67723.88;;;6.90;70.30
11692;BME280;33659;42.672;23.354;2023-11-21T06:06:21;67729.78;;;6.95;70.03
11692;BME280;33659;42.672;23.354;2023-11-21T06:08:50;67729.25;;;6.95;70.10
11692;BME280;33659;42.672;23.354;2023-11-21T06:11:16;67731.97;;;6.97;70.30
11692;BME280;33659;42.672;23.354;2023-11-21T06:13:44;67738.84;;;7.01;70.19
11692;BME280;33659;42.672;23.354;2023-11-21T06:16:10;67741.66;;;7.06;69.91
11692;BME280;33659;42.672;23.354;2023-11-21T06:18:40;67748.13;;;7.13;69.86
11692;BME280;33659;42.672;23.354;2023-11-21T06:21:09;67750.28;;;7.15;69.72
11692;BME280;33659;42.672;23.354;2023-11-21T06:23:37;67757.88;;;7.22;69.30
11692;BME280;33659;42.672;23.354;2023-11-21T06:26:04;67763.66;;;7.25;69.27
11692;BME280;33659;42.672;23.354;2023-11-21T06:28:31;67763.25;;;7.27;69.33
11692;BME280;33659;42.672;23.354;2023-11-21T06:30:58;67758.41;;;7.22;69.13
11692;BME280;33659;42.672;23.354;2023-11-21T06:33:30;67737.75;;;7.00;69.62
11692;BME280;33659;42.672;23.354;2023-11-21T06:35:57;67746.53;;;7.11;70.01
11692;BME280;33659;42.672;23.354;2023-11-21T06:38:23;67748.13;;;7.13;70.23
11692;BME280;33659;42.672;23.354;2023-11-21T06:40:56;67761.09;;;7.25;69.92
11692;BME280;33659;42.672;23.354;2023-11-21T06:43:23;67764.34;;;7.28;69.58
11692;BME280;33659;42.672;23.354;2023-11-21T06:45:50;67775.66;;;7.39;69.49
11692;BME280;33659;42.672;23.354;2023-11-21T06:48:16;67784.72;;;7.45;69.12
11692;BME280;33659;42.672;23.354;2023-11-21T06:50:43;67784.84;;;7.47;68.91
11692;BME280;33659;42.672;23.354;2023-11-21T06:53:11;67778.38;;;7.41;68.93
11692;BME280;33659;42.672;23.354;2023-11-21T06:55:38;67773.94;;;7.35;68.96
11692;BME280;33659;42.672;23.354;2023-11-21T06:58:06;67780.97;;;7.41;68.97
11692;BME280;33659;42.672;23.354;2023-11-21T07:00:34;67773.38;;;7.34;69.23
11692;BME280;33659;42.672;23.354;2023-11-21T07:03:00;67760.03;;;7.24;69.70
11692;BME280;33659;42.672;23.354;2023-11-21T07:05:27;67763.03;;;7.22;69.94
11692;BME280;33659;42.672;23.354;2023-11-21T07:07:54;67749.09;;;7.11;70.02
11692;BME280;33659;42.672;23.354;2023-11-21T07:10:20;67732.38;;;6.95;70.88
11692;BME280;33659;42.672;23.354;2023-11-21T07:12:47;67723.75;;;6.87;71.13
11692;BME280;33659;42.672;23.354;2023-11-21T07:15:15;67715.75;;;6.82;71.37
11692;BME280;33659;42.672;23.354;2023-11-21T07:17:42;67712.53;;;6.79;71.70
11692;BME280;33659;42.672;23.354;2023-11-21T07:20:10;67705.94;;;6.70;71.98
11692;BME280;33659;42.672;23.354;2023-11-21T07:22:37;67701.09;;;6.66;72.55
11692;BME280;33659;42.672;23.354;2023-11-21T07:25:04;67701.72;;;6.69;72.50
11692;BME280;33659;42.672;23.354;2023-11-21T07:27:32;67712.53;;;6.79;72.54
11692;BME280;33659;42.672;23.354;2023-11-21T07:30:01;67723.88;;;6.90;71.97
11692;BME280;33659;42.672;23.354;2023-11-21T07:32:31;67731.28;;;6.94;71.95
11692;BME280;33659;42.672;23.354;2023-11-21T07:34:58;67743.69;;;7.06;71.81
11692;BME280;33659;42.672;23.354;2023-11-21T07:37:26;67746.00;;;7.11;71.36
11692;BME280;33659;42.672;23.354;2023-11-21T07:39:54;67773.50;;;7.37;71.10
11692;BME280;33659;42.672;23.354;2023-11-21T07:42:23;67788.09;;;7.50;70.74
11692;BME280;33659;42.672;23.354;2023-11-21T07:44:52;67805.78;;;7.65;70.27
11692;BME280;33659;42.672;23.354;2023-11-21T07:47:19;67820.47;;;7.81;69.78
11692;BME280;33659;42.672;23.354;2023-11-21T07:49:47;67837.63;;;7.95;68.70
11692;BME280;33659;42.672;23.354;2023-11-21T07:52:14;67843.16;;;8.02;68.72
11692;BME280;33659;42.672;23.354;2023-11-21T07:54:41;67841.53;;;8.01;68.22
11692;BME280;33659;42.672;23.354;2023-11-21T07:57:08;67850.06;;;8.06;68.27
11692;BME280;33659;42.672;23.354;2023-11-21T07:59:38;67846.41;;;8.05;68.07
11692;BME280;33659;42.672;23.354;2023-11-21T08:02:06;67844.66;;;8.01;68.47
11692;BME280;33659;42.672;23.354;2023-11-21T08:04:32;67860.44;;;8.19;68.42
11692;BME280;33659;42.672;23.354;2023-11-21T08:07:00;67871.78;;;8.29;67.85
11692;BME280;33659;42.672;23.354;2023-11-21T08:09:29;67877.06;;;8.32;67.57
11692;BME280;33659;42.672;23.354;2023-11-21T08:11:55;67881.53;;;8.38;67.26
11692;BME280;33659;42.672;23.354;2023-11-21T08:14:22;67883.16;;;8.40;67.80
11692;BME280;33659;42.672;23.354;2023-11-21T08:16:50;67903.00;;;8.56;66.90
11692;BME280;33659;42.672;23.354;2023-11-21T08:19:17;67906.91;;;8.62;66.92
11692;BME280;33659;42.672;23.354;2023-11-21T08:21:44;67925.72;;;8.78;66.25
11692;BME280;33659;42.672;23.354;2023-11-21T08:24:13;67945.72;;;8.97;66.18
11692;BME280;33659;42.672;23.354;2023-11-21T08:26:39;67958.78;;;9.11;65.51
11692;BME280;33659;42.672;23.354;2023-11-21T08:29:06;67956.09;;;9.09;65.04
11692;BME280;33659;42.672;23.354;2023-11-21T08:31:33;67961.38;;;9.11;64.79
11692;BME280;33659;42.672;23.354;2023-11-21T08:34:00;67943.00;;;8.94;65.18
11692;BME280;33659;42.672;23.354;2023-11-21T08:36:28;67971.22;;;9.23;65.01
11692;BME280;33659;42.672;23.354;2023-11-21T08:38:56;67980.84;;;9.30;64.36
11692;BME280;33659;42.672;23.354;2023-11-21T08:41:24;67996.50;;;9.44;64.07
11692;BME280;33659;42.672;23.354;2023-11-21T08:43:53;68012.84;;;9.62;63.68
11692;BME280;33659;42.672;23.354;2023-11-21T08:46:20;68024.63;;;9.71;63.34
11692;BME280;33659;42.672;23.354;2023-11-21T08:48:48;68038.16;;;9.84;63.28
11692;BME280;33659;42.672;23.354;2023-11-21T08:51:17;68045.84;;;9.93;62.85
11692;BME280;33659;42.672;23.354;2023-11-21T08:53:44;68057.63;;;10.02;62.42
11692;BME280;33659;42.672;23.354;2023-11-21T08:56:12;68060.88;;;10.05;62.54
11692;BME280;33659;42.672;23.354;2023-11-21T08:58:41;68066.28;;;10.10;62.06
11692;BME280;33659;42.672;23.354;2023-11-21T09:01:08;68070.59;;;10.14;62.05
11692;BME280;33659;42.672;23.354;2023-11-21T09:03:35;68067.91;;;10.12;62.06
11692;BME280;33659;42.672;23.354;2023-11-21T09:06:02;68064.13;;;10.08;62.92
11692;BME280;33659;42.672;23.354;2023-11-21T09:08:29;68068.84;;;10.10;62.85
11692;BME280;33659;42.672;23.354;2023-11-21T09:10:56;68065.84;;;10.12;62.74
11692;BME280;33659;42.672;23.354;2023-11-21T09:13:22;68067.91;;;10.12;62.21
11692;BME280;33659;42.672;23.354;2023-11-21T09:15:52;68066.28;;;10.10;62.27
11692;BME280;33659;42.672;23.354;2023-11-21T09:18:18;68063.03;;;10.07;62.53
11692;BME280;33659;42.672;23.354;2023-11-21T09:20:45;68052.22;;;9.97;63.33
11692;BME280;33659;42.672;23.354;2023-11-21T09:23:12;68047.91;;;9.93;63.23
11692;BME280;33659;42.672;23.354;2023-11-21T09:25:38;68040.72;;;9.84;63.29
11692;BME280;33659;42.672;23.354;2023-11-21T09:28:05;68033.72;;;9.77;63.80
11692;BME280;33659;42.672;23.354;2023-11-21T09:30:33;68020.97;;;9.70;64.03
11692;BME280;33659;42.672;23.354;2023-11-21T09:33:01;68032.09;;;9.75;64.14
11692;BME280;33659;42.672;23.354;2023-11-21T09:35:30;68039.22;;;9.85;64.27
11692;BME280;33659;42.672;23.354;2023-11-21T09:37:57;68048.53;;;9.96;64.04
11692;BME280;33659;42.672;23.354;2023-11-21T09:40:24;68057.63;;;10.02;63.03
11692;BME280;33659;42.672;23.354;2023-11-21T09:42:54;68070.50;;;10.12;63.24
11692;BME280;33659;42.672;23.354;2023-11-21T09:45:25;68095.38;;;10.35;62.87
11692;BME280;33659;42.672;23.354;2023-11-21T09:47:52;68120.53;;;10.64;62.10
11692;BME280;33659;42.672;23.354;2023-11-21T09:50:22;68151.78;;;10.91;61.01
11692;BME280;33659;42.672;23.354;2023-11-21T09:52:55;68180.38;;;11.15;60.31
11692;BME280;33659;42.672;23.354;2023-11-21T09:55:26;68153.94;;;10.93;60.46
11692;BME280;33659;42.672;23.354;2023-11-21T09:57:56;68143.69;;;10.83;60.88
11692;BME280;33659;42.672;23.354;2023-11-21T10:00:31;68157.63;;;10.94;60.63
11692;BME280;33659;42.672;23.354;2023-11-21T10:02:58;68177.13;;;11.12;60.08
11692;BME280;33659;42.672;23.354;2023-11-21T10:05:26;68194.00;;;11.30;59.80
11692;BME280;33659;42.672;23.354;2023-11-21T10:07:56;68205.41;;;11.41;59.37
11692;BME280;33659;42.672;23.354;2023-11-21T10:10:24;68221.19;;;11.58;59.19
11692;BME280;33659;42.672;23.354;2023-11-21T10:12:55;68263.78;;;11.93;58.54
11692;BME280;33659;42.672;23.354;2023-11-21T10:15:23;68311.56;;;12.41;57.52
11692;BME280;33659;42.672;23.354;2023-11-21T10:17:52;68375.97;;;12.99;55.42
11692;BME280;33659;42.672;23.354;2023-11-21T10:20:19;68416.66;;;13.37;53.95
11692;BME280;33659;42.672;23.354;2023-11-21T10:22:48;68435.19;;;13.57;53.01
11692;BME280;33659;42.672;23.354;2023-11-21T10:25:15;68460.03;;;13.78;52.44
11692;BME280;33659;42.672;23.354;2023-11-21T10:27:47;68469.81;;;13.87;51.78
11692;BME280;33659;42.672;23.354;2023-11-21T10:30:16;68466.00;;;13.83;51.30
11692;BME280;33659;42.672;23.354;2023-11-21T10:32:43;68452.44;;;13.71;51.85
11692;BME280;33659;42.672;23.354;2023-11-21T10:35:10;68451.34;;;13.70;52.05
11692;BME280;33659;42.672;23.354;2023-11-21T10:37:37;68451.91;;;13.70;51.85
11692;BME280;33659;42.672;23.354;2023-11-21T10:40:07;68453.53;;;13.72;51.75
11692;BME280;33659;42.672;23.354;2023-11-21T10:42:37;68447.56;;;13.66;51.30
11692;BME280;33659;42.672;23.354;2023-11-21T10:45:04;68440.50;;;13.60;51.43
11692;BME280;33659;42.672;23.354;2023-11-21T10:47:38;68432.50;;;13.54;52.32
11692;BME280;33659;42.672;23.354;2023-11-21T10:50:05;68417.31;;;13.40;51.81
11692;BME280;33659;42.672;23.354;2023-11-21T10:52:36;68397.25;;;13.21;51.73
11692;BME280;33659;42.672;23.354;2023-11-21T10:55:16;68369.13;;;12.97;52.49
11692;BME280;33659;42.672;23.354;2023-11-21T10:57:44;68351.03;;;12.76;53.04
11692;BME280;33659;42.672;23.354;2023-11-21T11:00:15;68319.59;;;12.46;54.24
11692;BME280;33659;42.672;23.354;2023-11-21T11:02:45;68291.97;;;12.20;54.73
11692;BME280;33659;42.672;23.354;2023-11-21T11:05:15;68275.72;;;12.05;55.34
11692;BME280;33659;42.672;23.354;2023-11-21T11:07:48;68262.28;;;11.95;55.98
11692;BME280;33659;42.672;23.354;2023-11-21T11:10:19;68251.44;;;11.84;56.18
11692;BME280;33659;42.672;23.354;2023-11-21T11:12:48;68243.28;;;11.77;56.14
11692;BME280;33659;42.672;23.354;2023-11-21T11:15:15;68235.72;;;11.70;56.28
11692;BME280;33659;42.672;23.354;2023-11-21T11:17:43;68226.50;;;11.61;56.11
11692;BME280;33659;42.672;23.354;2023-11-21T11:20:12;68215.13;;;11.50;56.54
11692;BME280;33659;42.672;23.354;2023-11-21T11:22:45;68209.16;;;11.45;56.77
11692;BME280;33659;42.672;23.354;2023-11-21T11:25:47;68205.94;;;11.42;56.67
11692;BME280;33659;42.672;23.354;2023-11-21T11:28:21;68197.28;;;11.33;57.22
11692;BME280;33659;42.672;23.354;2023-11-21T11:31:00;68199.31;;;11.33;57.36
11692;BME280;33659;42.672;23.354;2023-11-21T11:33:36;68196.06;;;11.30;57.62
11692;BME280;33659;42.672;23.354;2023-11-21T11:36:08;68194.44;;;11.28;58.07
11692;BME280;33659;42.672;23.354;2023-11-21T11:38:37;68189.13;;;11.26;58.40
11692;BME280;33659;42.672;23.354;2023-11-21T11:41:06;68186.97;;;11.24;58.54
11692;BME280;33659;42.672;23.354;2023-11-21T11:43:34;68190.88;;;11.30;58.13
11692;BME280;33659;42.672;23.354;2023-11-21T11:46:10;68197.28;;;11.33;58.12
11692;BME280;33659;42.672;23.354;2023-11-21T11:48:38;68197.16;;;11.31;58.18
11692;BME280;33659;42.672;23.354;2023-11-21T11:51:10;68192.81;;;11.27;58.41
11692;BME280;33659;42.672;23.354;2023-11-21T11:53:40;68177.34;;;11.17;58.88
11692;BME280;33659;42.672;23.354;2023-11-21T11:56:26;68172.38;;;11.10;59.44
11692;BME280;33659;42.672;23.354;2023-11-21T11:58:54;68167.91;;;11.03;59.71
11692;BME280;33659;42.672;23.354;2023-11-21T12:01:22;68151.34;;;10.93;60.40
11692;BME280;33659;42.672;23.354;2023-11-21T12:04:24;68162.59;;;11.01;60.13
11692;BME280;33659;42.672;23.354;2023-11-21T12:06:59;68159.38;;;10.98;60.84
11692;BME280;33659;42.672;23.354;2023-11-21T12:09:28;68152.44;;;10.94;60.82
11692;BME280;33659;42.672;23.354;2023-11-21T12:11:56;68151.25;;;10.90;61.30
11692;BME280;33659;42.672;23.354;2023-11-21T12:14:23;68147.03;;;10.89;62.28
11692;BME280;33659;42.672;23.354;2023-11-21T12:16:50;68144.88;;;10.87;62.87
11692;BME280;33659;42.672;23.354;2023-11-21T12:19:18;68133.94;;;10.74;63.39
11692;BME280;33659;42.672;23.354;2023-11-21T12:21:48;68112.94;;;10.56;63.91
11692;BME280;33659;42.672;23.354;2023-11-21T12:24:15;68102.00;;;10.44;65.51
11692;BME280;33659;42.672;23.354;2023-11-21T12:26:43;68102.00;;;10.44;65.67
11692;BME280;33659;42.672;23.354;2023-11-21T12:29:11;68106.75;;;10.46;65.78
11692;BME280;33659;42.672;23.354;2023-11-21T12:31:38;68110.53;;;10.49;66.11
11692;BME280;33659;42.672;23.354;2023-11-21T12:34:06;68103.63;;;10.45;66.01
11692;BME280;33659;42.672;23.354;2023-11-21T12:36:34;68096.59;;;10.39;66.82
11692;BME280;33659;42.672;23.354;2023-11-21T12:39:02;68096.59;;;10.39;67.25
11692;BME280;33659;42.672;23.354;2023-11-21T12:41:29;68096.06;;;10.38;67.86
11692;BME280;33659;42.672;23.354;2023-11-21T12:43:57;68092.25;;;10.35;68.36
11692;BME280;33659;42.672;23.354;2023-11-21T12:46:25;68092.69;;;10.33;69.14
11692;BME280;33659;42.672;23.354;2023-11-21T12:48:56;68086.84;;;10.29;69.13
11692;BME280;33659;42.672;23.354;2023-11-21T12:51:23;68080.34;;;10.23;69.54
11692;BME280;33659;42.672;23.354;2023-11-21T12:53:50;68086.31;;;10.29;69.17
11692;BME280;33659;42.672;23.354;2023-11-21T12:56:18;68091.72;;;10.34;69.29
11692;BME280;33659;42.672;23.354;2023-11-21T12:58:45;68094.41;;;10.37;69.11
11692;BME280;33659;42.672;23.354;2023-11-21T13:01:14;68103.09;;;10.45;68.96